createdAt,value
2017-02-28T00:01:15.815Z,9.71
2017-02-28T00:02:35.839Z,9.73
2017-02-28T00:03:53.638Z,9.73
2017-02-28T00:05:15.622Z,9.73
2017-02-28T00:06:35.720Z,9.73
2017-02-28T00:07:57.912Z,9.72
2017-02-28T00:09:16.715Z,9.69
2017-02-28T00:10:38.907Z,9.68
2017-02-28T00:12:01.584Z,9.65
2017-02-28T00:13:26.079Z,9.62
2017-02-28T00:14:46.630Z,9.62
2017-02-28T00:16:08.922Z,9.6
2017-02-28T00:17:28.042Z,9.56
2017-02-28T00:18:49.549Z,9.54
2017-02-28T00:20:10.759Z,9.51
2017-02-28T00:21:31.937Z,9.47
2017-02-28T00:22:56.395Z,9.43
2017-02-28T00:24:19.383Z,9.43
2017-02-28T00:25:41.919Z,9.43
2017-02-28T00:27:04.338Z,9.44
2017-02-28T00:28:24.849Z,9.44
2017-02-28T00:29:45.674Z,9.39
2017-02-28T00:31:06.620Z,9.36
2017-02-28T00:32:25.997Z,9.33
2017-02-28T00:33:50.995Z,9.31
2017-02-28T00:35:13.925Z,9.27
2017-02-28T00:36:34.838Z,9.26
2017-02-28T00:37:55.237Z,9.25
2017-02-28T00:39:14.937Z,9.22
2017-02-28T00:40:44.445Z,9.2
2017-02-28T00:42:07.951Z,9.17
2017-02-28T00:43:28.250Z,9.13
2017-02-28T00:44:48.746Z,9.1
2017-02-28T00:46:07.456Z,9.08
2017-02-28T00:47:25.955Z,9.03
2017-02-28T00:48:47.882Z,8.99
2017-02-28T00:50:08.595Z,8.95
2017-02-28T00:51:27.724Z,8.92
2017-02-28T00:52:50.570Z,8.93
2017-02-28T00:54:08.452Z,8.93
2017-02-28T00:55:28.911Z,8.93
2017-02-28T00:56:51.902Z,8.92
2017-02-28T00:58:16.636Z,8.92
2017-02-28T00:59:38.208Z,8.93
2017-02-28T01:01:00.352Z,8.91
2017-02-28T01:02:21.484Z,8.9
2017-02-28T01:03:44.702Z,8.87
2017-02-28T01:05:05.481Z,8.88
2017-02-28T01:06:24.612Z,8.89
2017-02-28T01:07:43.660Z,8.86
2017-02-28T01:09:03.145Z,8.86
2017-02-28T01:10:22.527Z,8.85
2017-02-28T01:11:40.743Z,8.82
2017-02-28T01:12:55.866Z,8.82
2017-02-28T01:14:14.510Z,8.82
2017-02-28T01:15:37.219Z,8.82
2017-02-28T01:16:59.548Z,8.83
2017-02-28T01:18:17.565Z,8.84
2017-02-28T01:19:40.858Z,8.83
2017-02-28T01:21:01.075Z,8.83
2017-02-28T01:22:20.482Z,8.8
2017-02-28T01:23:38.752Z,8.77
2017-02-28T01:24:56.896Z,8.78
2017-02-28T01:26:15.452Z,8.75
2017-02-28T01:27:37.171Z,8.71
2017-02-28T01:28:55.155Z,8.68
2017-02-28T01:30:15.624Z,8.67
2017-02-28T01:31:38.708Z,8.66
2017-02-28T01:32:59.177Z,8.67
2017-02-28T01:34:20.525Z,8.66
2017-02-28T01:35:40.561Z,8.66
2017-02-28T01:36:58.571Z,8.67
2017-02-28T01:38:15.980Z,8.68
2017-02-28T01:39:35.701Z,8.68
2017-02-28T01:40:54.928Z,8.7
2017-02-28T01:42:13.248Z,8.71
2017-02-28T01:43:38.776Z,8.71
2017-02-28T01:45:00.915Z,8.71
2017-02-28T01:46:23.925Z,8.71
2017-02-28T01:47:45.469Z,8.7
2017-02-28T01:49:03.841Z,8.69
2017-02-28T01:50:21.640Z,8.66
2017-02-28T01:51:40.969Z,8.66
2017-02-28T01:52:59.187Z,8.63
2017-02-28T01:54:18.238Z,8.59
2017-02-28T01:55:38.362Z,8.57
2017-02-28T01:56:58.520Z,8.53
2017-02-28T01:58:17.955Z,8.53
2017-02-28T01:59:39.113Z,8.52
2017-02-28T02:00:59.808Z,8.54
2017-02-28T02:02:21.803Z,8.56
2017-02-28T02:03:42.243Z,8.57
2017-02-28T02:05:01.818Z,8.55
2017-02-28T02:06:22.892Z,8.54
2017-02-28T02:07:41.966Z,8.52
2017-02-28T02:09:03.965Z,8.51
2017-02-28T02:10:27.104Z,8.49
2017-02-28T02:11:50.409Z,8.5
2017-02-28T02:13:10.608Z,8.48
2017-02-28T02:14:28.268Z,8.45
2017-02-28T02:15:46.456Z,8.44
2017-02-28T02:17:07.518Z,8.44
2017-02-28T02:18:28.121Z,8.4
2017-02-28T02:19:52.158Z,8.37
2017-02-28T02:21:11.174Z,8.34
2017-02-28T02:22:31.438Z,8.33
2017-02-28T02:23:52.338Z,8.32
2017-02-28T02:25:09.729Z,8.32
2017-02-28T02:26:28.746Z,8.31
2017-02-28T02:27:48.265Z,8.29
2017-02-28T02:29:10.008Z,8.28
2017-02-28T02:30:32.472Z,8.29
2017-02-28T02:31:53.449Z,8.26
2017-02-28T02:33:13.437Z,8.22
2017-02-28T02:34:37.416Z,8.2
2017-02-28T02:35:59.422Z,8.19
2017-02-28T02:37:15.785Z,8.15
2017-02-28T02:38:35.530Z,8.12
2017-02-28T02:39:56.362Z,8.09
2017-02-28T02:41:19.675Z,8.09
2017-02-28T02:42:41.915Z,8.09
2017-02-28T02:44:00.477Z,8.11
2017-02-28T02:45:22.844Z,8.09
2017-02-28T02:46:42.864Z,8.1
2017-02-28T02:48:00.617Z,8.14
2017-02-28T02:49:23.433Z,8.12
2017-02-28T02:50:44.310Z,8.12
2017-02-28T02:52:04.128Z,8.12
2017-02-28T02:53:23.472Z,8.12
2017-02-28T02:54:45.282Z,8.14
2017-02-28T02:56:04.702Z,8.13
2017-02-28T02:57:24.624Z,8.13
2017-02-28T02:58:45.608Z,8.11
2017-02-28T03:00:06.514Z,8.06
2017-02-28T03:01:25.453Z,8.03
2017-02-28T03:02:45.439Z,8.02
2017-02-28T03:04:09.518Z,8.04
2017-02-28T03:05:31.113Z,8.06
2017-02-28T03:06:48.902Z,8.07
2017-02-28T03:08:08.998Z,8.08
2017-02-28T03:09:28.444Z,8.12
2017-02-28T03:10:48.244Z,8.12
2017-02-28T03:12:08.029Z,8.13
2017-02-28T03:13:23.396Z,8.13
2017-02-28T03:14:44.966Z,8.11
2017-02-28T03:16:04.872Z,8.12
2017-02-28T03:17:26.140Z,8.12
2017-02-28T03:18:46.354Z,8.13
2017-02-28T03:20:07.294Z,8.13
2017-02-28T03:21:28.872Z,8.15
2017-02-28T03:22:49.170Z,8.16
2017-02-28T03:24:10.109Z,8.15
2017-02-28T03:25:30.871Z,8.12
2017-02-28T03:26:52.833Z,8.07
2017-02-28T03:28:15.732Z,8.05
2017-02-28T03:29:35.300Z,8.06
2017-02-28T03:30:56.526Z,8.07
2017-02-28T03:32:19.772Z,8.04
2017-02-28T03:33:39.960Z,8.05
2017-02-28T03:35:02.375Z,8.05
2017-02-28T03:36:22.116Z,8.07
2017-02-28T03:37:39.880Z,8.09
2017-02-28T03:38:59.592Z,8.06
2017-02-28T03:40:19.304Z,8.04
2017-02-28T03:41:36.499Z,8.04
2017-02-28T03:42:56.266Z,8.03
2017-02-28T03:44:13.888Z,8.04
2017-02-28T03:45:32.698Z,8.06
2017-02-28T03:46:53.122Z,8.05
2017-02-28T03:48:12.639Z,8.02
2017-02-28T03:49:34.028Z,8.01
2017-02-28T03:50:52.009Z,7.99
2017-02-28T03:52:09.830Z,7.97
2017-02-28T03:53:31.506Z,7.95
2017-02-28T03:54:53.076Z,7.94
2017-02-28T03:56:12.494Z,7.93
2017-02-28T03:57:33.670Z,7.91
2017-02-28T03:58:56.205Z,7.92
2017-02-28T04:00:16.678Z,7.9
2017-02-28T04:01:36.785Z,7.85
2017-02-28T04:02:57.394Z,7.8
2017-02-28T04:04:20.030Z,7.75
2017-02-28T04:05:40.615Z,7.72
2017-02-28T04:07:01.839Z,7.7
2017-02-28T04:08:23.886Z,7.67
2017-02-28T04:09:42.411Z,7.59
2017-02-28T04:10:58.606Z,7.57
2017-02-28T04:12:18.983Z,7.56
2017-02-28T04:13:43.241Z,7.56
2017-02-28T04:15:02.969Z,7.56
2017-02-28T04:16:25.244Z,7.58
2017-02-28T04:17:45.923Z,7.58
2017-02-28T04:19:07.466Z,7.6
2017-02-28T04:20:33.044Z,7.6
2017-02-28T04:21:53.319Z,7.61
2017-02-28T04:23:11.841Z,7.59
2017-02-28T04:24:29.744Z,7.57
2017-02-28T04:25:46.736Z,7.52
2017-02-28T04:27:11.525Z,7.49
2017-02-28T04:28:29.552Z,7.43
2017-02-28T04:29:50.389Z,7.41
2017-02-28T04:31:11.201Z,7.39
2017-02-28T04:32:35.676Z,7.4
2017-02-28T04:33:57.608Z,7.39
2017-02-28T04:35:19.589Z,7.33
2017-02-28T04:36:42.296Z,7.31
2017-02-28T04:38:04.229Z,7.29
2017-02-28T04:39:23.774Z,7.28
2017-02-28T04:40:42.978Z,7.28
2017-02-28T04:42:01.327Z,7.27
2017-02-28T04:43:23.226Z,7.23
2017-02-28T04:44:46.591Z,7.19
2017-02-28T04:46:07.400Z,7.17
2017-02-28T04:47:28.031Z,7.16
2017-02-28T04:48:49.540Z,7.14
2017-02-28T04:50:10.257Z,7.11
2017-02-28T04:51:33.623Z,7.08
2017-02-28T04:52:53.864Z,7.02
2017-02-28T04:54:15.835Z,7.03
2017-02-28T04:55:39.506Z,7.03
2017-02-28T04:56:59.776Z,7.02
2017-02-28T04:58:20.373Z,7.02
2017-02-28T04:59:44.293Z,7.02
2017-02-28T05:01:06.011Z,7.05
2017-02-28T05:02:29.320Z,7.07
2017-02-28T05:03:50.391Z,7.08
2017-02-28T05:05:14.954Z,7.07
2017-02-28T05:06:37.891Z,7.07
2017-02-28T05:08:01.309Z,7.08
2017-02-28T05:09:23.695Z,7.11
2017-02-28T05:10:47.538Z,7.11
2017-02-28T05:12:11.219Z,7.11
2017-02-28T05:13:31.191Z,7.11
2017-02-28T05:14:53.802Z,7.11
2017-02-28T05:16:16.001Z,7.07
2017-02-28T05:17:37.522Z,7.07
2017-02-28T05:19:00.470Z,7.05
2017-02-28T05:20:19.290Z,7
2017-02-28T05:21:40.375Z,6.96
2017-02-28T05:23:07.062Z,6.92
2017-02-28T05:24:27.740Z,6.89
2017-02-28T05:25:49.436Z,6.87
2017-02-28T05:27:12.777Z,6.87
2017-02-28T05:28:33.778Z,6.87
2017-02-28T05:29:57.394Z,6.86
2017-02-28T05:31:19.204Z,6.85
2017-02-28T05:32:43.280Z,6.81
2017-02-28T05:34:05.912Z,6.79
2017-02-28T05:35:27.445Z,6.76
2017-02-28T05:36:48.297Z,6.74
2017-02-28T05:38:09.434Z,6.7
2017-02-28T05:39:30.424Z,6.66
2017-02-28T05:40:54.039Z,6.75
2017-02-28T05:42:16.265Z,6.88
2017-02-28T05:43:41.954Z,6.96
2017-02-28T05:45:04.243Z,6.96
2017-02-28T05:46:25.002Z,6.94
2017-02-28T05:47:44.222Z,6.91
2017-02-28T05:49:04.221Z,6.87
2017-02-28T05:50:27.782Z,6.82
2017-02-28T05:51:45.254Z,6.78
2017-02-28T05:53:01.511Z,6.78
2017-02-28T05:54:20.916Z,6.75
2017-02-28T05:55:39.699Z,6.75
2017-02-28T05:57:03.432Z,6.78
2017-02-28T05:58:20.226Z,6.78
2017-02-28T05:59:39.866Z,6.75
2017-02-28T06:00:58.254Z,6.73
2017-02-28T06:02:17.690Z,6.75
2017-02-28T06:03:36.527Z,6.75
2017-02-28T06:04:56.934Z,6.76
2017-02-28T06:06:14.229Z,6.77
2017-02-28T06:07:36.053Z,6.82
2017-02-28T06:08:54.256Z,6.82
2017-02-28T06:10:09.462Z,6.82
2017-02-28T06:11:28.055Z,6.84
2017-02-28T06:12:47.239Z,6.83
2017-02-28T06:14:05.681Z,6.81
2017-02-28T06:15:28.276Z,6.84
2017-02-28T06:16:50.434Z,6.85
2017-02-28T06:18:14.595Z,6.85
2017-02-28T06:19:37.380Z,6.84
2017-02-28T06:20:54.811Z,6.89
2017-02-28T06:22:10.079Z,6.91
2017-02-28T06:23:28.873Z,6.93
2017-02-28T06:24:47.308Z,6.93
2017-02-28T06:26:04.167Z,6.92
2017-02-28T06:27:23.285Z,6.92
2017-02-28T06:28:37.781Z,6.93
2017-02-28T06:29:53.511Z,6.94
2017-02-28T06:31:11.231Z,6.94
2017-02-28T06:32:27.159Z,6.96
2017-02-28T06:33:44.835Z,6.95
2017-02-28T06:35:02.371Z,6.95
2017-02-28T06:36:21.060Z,6.97
2017-02-28T06:37:37.816Z,6.98
2017-02-28T06:38:55.041Z,7
2017-02-28T06:40:11.828Z,6.99
2017-02-28T06:41:29.535Z,6.98
2017-02-28T06:42:45.325Z,6.96
2017-02-28T06:44:04.536Z,6.96
2017-02-28T06:45:22.044Z,6.95
2017-02-28T06:46:42.026Z,6.96
2017-02-28T06:47:59.910Z,6.94
2017-02-28T06:49:20.038Z,6.94
2017-02-28T06:50:36.114Z,6.95
2017-02-28T06:51:53.980Z,6.93
2017-02-28T06:53:10.865Z,6.93
2017-02-28T06:54:28.013Z,6.93
2017-02-28T06:55:44.604Z,6.96
2017-02-28T06:57:06.682Z,7
2017-02-28T06:58:23.341Z,7.02
2017-02-28T06:59:40.625Z,7.03
2017-02-28T07:00:56.565Z,7.06
2017-02-28T07:02:13.102Z,7.07
2017-02-28T07:03:30.497Z,7.05
2017-02-28T07:04:47.762Z,7
2017-02-28T07:06:08.198Z,6.99
2017-02-28T07:07:24.182Z,6.99
2017-02-28T07:08:41.225Z,7
2017-02-28T07:10:00.232Z,6.99
2017-02-28T07:11:17.602Z,6.98
2017-02-28T07:12:35.222Z,6.97
2017-02-28T07:13:54.777Z,6.98
2017-02-28T07:15:12.304Z,7.01
2017-02-28T07:16:28.823Z,7
2017-02-28T07:17:47.700Z,6.99
2017-02-28T07:19:05.048Z,6.99
2017-02-28T07:20:24.514Z,7.01
2017-02-28T07:21:45.006Z,7.04
2017-02-28T07:23:04.247Z,7.06
2017-02-28T07:24:23.314Z,7.11
2017-02-28T07:25:40.470Z,7.11
2017-02-28T07:26:57.419Z,7.1
2017-02-28T07:28:16.591Z,7.12
2017-02-28T07:29:33.586Z,7.17
2017-02-28T07:30:49.241Z,7.21
2017-02-28T07:32:09.562Z,7.24
2017-02-28T07:33:30.055Z,7.34
2017-02-28T07:34:49.200Z,7.39
2017-02-28T07:36:13.310Z,7.46
2017-02-28T07:37:30.815Z,7.52
2017-02-28T07:38:48.851Z,7.56
2017-02-28T07:40:09.773Z,7.64
2017-02-28T07:41:31.048Z,7.71
2017-02-28T07:42:50.397Z,7.75
2017-02-28T07:44:08.482Z,7.77
2017-02-28T07:45:25.415Z,7.8
2017-02-28T07:46:49.385Z,7.81
2017-02-28T07:48:09.828Z,7.82
2017-02-28T07:49:36.118Z,7.91
2017-02-28T07:50:56.739Z,7.97
2017-02-28T07:52:14.886Z,7.98
2017-02-28T07:53:31.828Z,7.94
2017-02-28T07:54:47.914Z,7.93
2017-02-28T07:56:04.463Z,7.9
2017-02-28T07:57:22.383Z,7.86
2017-02-28T07:58:37.642Z,7.81
2017-02-28T07:59:56.660Z,7.75
2017-02-28T08:01:18.658Z,7.76
2017-02-28T08:02:39.880Z,7.83
2017-02-28T08:03:58.319Z,7.84
2017-02-28T08:05:17.341Z,7.78
2017-02-28T08:06:36.021Z,7.74
2017-02-28T08:07:55.095Z,7.68
2017-02-28T08:09:14.381Z,7.7
2017-02-28T08:10:32.050Z,7.74
2017-02-28T08:11:50.325Z,7.83
2017-02-28T08:13:06.743Z,7.96
2017-02-28T08:14:23.859Z,8.1
2017-02-28T08:15:41.658Z,8.19
2017-02-28T08:16:59.025Z,8.26
2017-02-28T08:18:17.812Z,8.32
2017-02-28T08:19:34.832Z,8.32
2017-02-28T08:20:54.324Z,8.32
2017-02-28T08:22:12.353Z,8.31
2017-02-28T08:23:30.025Z,8.28
2017-02-28T08:24:48.254Z,8.26
2017-02-28T08:26:06.211Z,8.22
2017-02-28T08:27:24.518Z,8.21
2017-02-28T08:28:44.256Z,8.19
2017-02-28T08:30:01.887Z,8.18
2017-02-28T08:31:18.809Z,8.2
2017-02-28T08:32:37.312Z,8.21
2017-02-28T08:33:56.978Z,8.24
2017-02-28T08:35:15.971Z,8.29
2017-02-28T08:36:32.830Z,8.32
2017-02-28T08:37:49.653Z,8.36
2017-02-28T08:39:07.684Z,8.4
2017-02-28T08:40:25.044Z,8.44
2017-02-28T08:41:44.036Z,8.48
2017-02-28T08:43:00.323Z,8.51
2017-02-28T08:44:19.259Z,8.51
2017-02-28T08:45:37.608Z,8.5
2017-02-28T08:46:54.699Z,8.54
2017-02-28T08:48:13.606Z,8.57
2017-02-28T08:49:31.505Z,8.57
2017-02-28T08:50:49.217Z,8.58
2017-02-28T08:52:06.488Z,8.58
2017-02-28T08:53:23.880Z,8.58
2017-02-28T08:54:43.050Z,8.62
2017-02-28T08:56:02.245Z,8.69
2017-02-28T08:57:25.379Z,8.73
2017-02-28T08:58:42.828Z,8.77
2017-02-28T09:00:00.796Z,8.79
2017-02-28T09:01:19.428Z,8.8
2017-02-28T09:02:37.547Z,8.82
2017-02-28T09:03:55.765Z,8.81
2017-02-28T09:05:12.838Z,8.79
2017-02-28T09:06:30.947Z,8.77
2017-02-28T09:07:48.299Z,8.75
2017-02-28T09:09:05.533Z,8.79
2017-02-28T09:10:21.648Z,8.88
2017-02-28T09:11:39.479Z,8.92
2017-02-28T09:12:56.700Z,8.9
2017-02-28T09:14:14.841Z,8.9
2017-02-28T09:15:33.826Z,8.95
2017-02-28T09:16:53.651Z,9.03
2017-02-28T09:18:09.331Z,9.16
2017-02-28T09:19:27.788Z,9.29
2017-02-28T09:20:44.519Z,9.43
2017-02-28T09:22:04.060Z,9.57
2017-02-28T09:23:21.728Z,9.66
2017-02-28T09:24:38.111Z,9.74
2017-02-28T09:25:53.679Z,9.8
2017-02-28T09:27:11.184Z,9.93
2017-02-28T09:28:29.058Z,10.02
2017-02-28T09:29:46.172Z,10.08
2017-02-28T09:31:05.720Z,10.12
2017-02-28T09:32:26.215Z,10.15
2017-02-28T09:34:00.618Z,10.16
2017-02-28T09:35:19.804Z,10.13
2017-02-28T09:36:38.478Z,10.12
2017-02-28T09:37:57.378Z,10.09
2017-02-28T09:39:16.667Z,10.06
2017-02-28T09:40:34.967Z,10.04
2017-02-28T09:41:53.746Z,10.02
2017-02-28T09:43:11.294Z,10.04
2017-02-28T09:44:30.073Z,10.06
2017-02-28T09:45:48.042Z,10.1
2017-02-28T09:47:06.804Z,10.17
2017-02-28T09:48:25.856Z,10.3
2017-02-28T09:49:43.155Z,10.45
2017-02-28T09:51:03.137Z,10.53
2017-02-28T09:52:20.239Z,10.5
2017-02-28T09:53:36.081Z,10.47
2017-02-28T09:57:08.278Z,10.36
2017-02-28T09:58:24.762Z,10.35
2017-02-28T09:59:39.422Z,10.32
2017-02-28T10:00:54.625Z,10.31
2017-02-28T10:02:08.927Z,10.23
2017-02-28T10:03:24.666Z,10.13
2017-02-28T10:04:39.258Z,10.04
2017-02-28T10:05:54.879Z,10.02
2017-02-28T10:07:09.728Z,9.97
2017-02-28T10:08:24.553Z,10.02
2017-02-28T10:09:40.277Z,10.15
2017-02-28T10:10:56.490Z,10.25
2017-02-28T10:12:13.607Z,10.34
2017-02-28T10:13:29.324Z,10.47
2017-02-28T10:14:44.899Z,10.56
2017-02-28T10:15:59.627Z,10.63
2017-02-28T10:17:16.629Z,10.71
2017-02-28T10:18:33.727Z,10.73
2017-02-28T10:19:48.307Z,10.75
2017-02-28T10:21:03.039Z,10.79
2017-02-28T10:22:18.197Z,10.87
2017-02-28T10:23:32.923Z,10.88
2017-02-28T10:24:48.103Z,10.9
2017-02-28T10:26:02.915Z,10.96
2017-02-28T10:27:16.972Z,11
2017-02-28T10:28:31.131Z,11.02
2017-02-28T10:29:46.159Z,10.99
2017-02-28T10:31:00.805Z,10.94
2017-02-28T10:32:15.469Z,10.9
2017-02-28T10:33:30.072Z,10.89
2017-02-28T10:34:45.297Z,10.87
2017-02-28T10:35:59.880Z,10.87
2017-02-28T10:37:14.668Z,10.85
2017-02-28T10:38:28.996Z,10.81
2017-02-28T10:39:43.510Z,10.76
2017-02-28T10:40:57.982Z,10.73
2017-02-28T10:42:12.867Z,10.7
2017-02-28T10:43:27.362Z,10.68
2017-02-28T10:44:41.466Z,10.71
2017-02-28T10:45:56.104Z,10.66
2017-02-28T10:47:10.654Z,10.67
2017-02-28T10:48:25.169Z,10.71
2017-02-28T10:49:39.920Z,10.8
2017-02-28T10:50:54.008Z,10.93
2017-02-28T10:52:09.015Z,11.06
2017-02-28T10:53:23.668Z,11.16
2017-02-28T10:54:38.244Z,11.25
2017-02-28T10:55:52.811Z,11.35
2017-02-28T10:57:07.425Z,11.47
2017-02-28T10:58:21.782Z,11.59
2017-02-28T10:59:36.698Z,11.66
2017-02-28T11:00:54.101Z,11.74
2017-02-28T11:02:13.397Z,11.8
2017-02-28T11:03:28.664Z,11.86
2017-02-28T11:04:44.432Z,11.97
2017-02-28T11:06:00.562Z,12.09
2017-02-28T11:07:22.773Z,12.18
2017-02-28T11:08:45.269Z,12.23
2017-02-28T11:09:59.308Z,12.24
2017-02-28T11:11:14.233Z,12.24
2017-02-28T11:12:29.352Z,12.2
2017-02-28T11:13:44.428Z,12.16
2017-02-28T11:15:00.438Z,12.12
2017-02-28T11:16:15.562Z,12.09
2017-02-28T11:17:30.191Z,12.12
2017-02-28T11:18:45.669Z,12.13
2017-02-28T11:20:00.309Z,12.16
2017-02-28T11:21:14.834Z,12.17
2017-02-28T11:22:29.427Z,12.2
2017-02-28T11:23:43.977Z,12.27
2017-02-28T11:24:58.944Z,12.37
2017-02-28T11:26:12.986Z,12.47
2017-02-28T11:27:28.515Z,12.58
2017-02-28T11:28:42.546Z,12.65
2017-02-28T11:29:57.542Z,12.73
2017-02-28T11:31:12.078Z,12.77
2017-02-28T11:32:26.197Z,12.78
2017-02-28T11:33:41.158Z,12.75
2017-02-28T11:34:57.771Z,12.7
2017-02-28T11:36:14.806Z,12.63
2017-02-28T11:37:29.567Z,12.56
2017-02-28T11:38:44.461Z,12.48
2017-02-28T11:39:58.518Z,12.41
2017-02-28T11:41:13.069Z,12.39
2017-02-28T11:42:28.866Z,12.36
2017-02-28T11:43:44.591Z,12.35
2017-02-28T11:45:00.167Z,12.32
2017-02-28T11:46:57.118Z,12.28
2017-02-28T11:48:12.162Z,12.32
2017-02-28T11:49:27.916Z,12.36
2017-02-28T11:50:43.936Z,12.38
2017-02-28T11:51:58.574Z,12.4
2017-02-28T11:53:13.796Z,12.39
2017-02-28T11:54:29.638Z,12.36
2017-02-28T11:55:43.683Z,12.32
2017-02-28T11:56:57.738Z,12.26
2017-02-28T11:58:12.240Z,12.18
2017-02-28T11:59:27.742Z,12.14
2017-02-28T12:00:42.017Z,12.09
2017-02-28T12:01:57.034Z,12.04
2017-02-28T12:03:12.857Z,11.99
2017-02-28T12:04:27.212Z,11.96
2017-02-28T12:05:43.505Z,11.95
2017-02-28T12:06:58.048Z,11.95
2017-02-28T12:08:15.297Z,11.99
2017-02-28T12:09:30.320Z,12.02
2017-02-28T12:10:45.676Z,12.07
2017-02-28T12:12:02.690Z,12.11
2017-02-28T12:13:17.462Z,12.15
2017-02-28T12:14:32.434Z,12.21
2017-02-28T12:15:47.674Z,12.23
2017-02-28T12:17:03.611Z,12.2
2017-02-28T12:18:18.301Z,12.15
2017-02-28T12:19:33.405Z,12.08
2017-02-28T12:20:49.029Z,12.01
2017-02-28T12:22:03.391Z,11.94
2017-02-28T12:23:18.169Z,11.87
2017-02-28T12:24:32.212Z,11.82
2017-02-28T12:25:47.613Z,11.82
2017-02-28T12:27:03.323Z,11.79
2017-02-28T12:28:17.942Z,11.79
2017-02-28T12:29:33.482Z,11.79
2017-02-28T12:30:48.602Z,11.79
2017-02-28T12:32:03.871Z,11.8
2017-02-28T12:33:18.689Z,11.81
2017-02-28T12:34:33.779Z,11.82
2017-02-28T12:35:48.719Z,11.82
2017-02-28T12:37:05.511Z,11.79
2017-02-28T12:38:20.262Z,11.71
2017-02-28T12:39:35.496Z,11.61
2017-02-28T12:40:49.566Z,11.57
2017-02-28T12:42:04.835Z,11.55
2017-02-28T12:43:19.756Z,11.53
2017-02-28T12:46:04.122Z,11.46
2017-02-28T12:47:19.300Z,11.43
2017-02-28T12:48:34.308Z,11.4
2017-02-28T12:49:48.967Z,11.39
2017-02-28T12:51:04.756Z,11.38
2017-02-28T12:52:19.652Z,11.38
2017-02-28T12:53:34.522Z,11.39
2017-02-28T12:54:51.819Z,11.39
2017-02-28T12:56:06.568Z,11.38
2017-02-28T12:57:21.422Z,11.37
2017-02-28T12:58:36.774Z,11.32
2017-02-28T12:59:51.754Z,11.28
2017-02-28T13:01:10.957Z,11.3
2017-02-28T13:02:26.268Z,11.3
2017-02-28T13:03:41.724Z,11.23
2017-02-28T13:04:56.349Z,11.16
2017-02-28T13:06:10.561Z,11.13
2017-02-28T13:07:24.895Z,11.14
2017-02-28T13:08:39.541Z,11.15
2017-02-28T13:09:55.093Z,11.19
2017-02-28T13:11:09.626Z,11.21
2017-02-28T13:12:23.678Z,11.21
2017-02-28T13:13:39.231Z,11.17
2017-02-28T13:14:53.601Z,11.14
2017-02-28T13:16:08.944Z,11.12
2017-02-28T13:17:23.281Z,11.09
2017-02-28T13:18:38.244Z,11.08
2017-02-28T13:19:53.031Z,11.1
2017-02-28T13:21:08.351Z,11.09
2017-02-28T13:22:23.894Z,11.07
2017-02-28T13:23:38.135Z,11.01
2017-02-28T13:24:52.826Z,11
2017-02-28T13:26:07.609Z,10.96
2017-02-28T13:27:21.793Z,10.94
2017-02-28T13:28:36.270Z,10.91
2017-02-28T13:29:51.615Z,10.87
2017-02-28T13:31:06.423Z,10.85
2017-02-28T13:32:21.038Z,10.84
2017-02-28T13:33:35.677Z,10.79
2017-02-28T13:34:50.388Z,10.72
2017-02-28T13:36:05.053Z,10.71
2017-02-28T13:37:19.816Z,10.69
2017-02-28T13:38:34.435Z,10.67
2017-02-28T13:39:49.234Z,10.66
2017-02-28T13:41:04.645Z,10.67
2017-02-28T13:42:19.649Z,10.69
2017-02-28T13:43:34.439Z,10.68
2017-02-28T13:44:50.590Z,10.69
2017-02-28T13:46:05.621Z,10.63
2017-02-28T13:47:20.861Z,10.62
2017-02-28T13:48:35.549Z,10.57
2017-02-28T13:49:50.451Z,10.55
2017-02-28T13:51:04.744Z,10.53
2017-02-28T13:52:19.234Z,10.44
2017-02-28T13:53:33.823Z,10.39
2017-02-28T13:54:48.721Z,10.33
2017-02-28T13:56:05.026Z,10.3
2017-02-28T13:57:20.375Z,10.3
2017-02-28T13:58:35.695Z,10.28
2017-02-28T13:59:50.464Z,10.21
2017-02-28T14:01:05.485Z,10.18
2017-02-28T14:02:20.142Z,10.16
2017-02-28T14:03:34.461Z,10.21
2017-02-28T14:04:49.258Z,10.26
2017-02-28T14:06:04.270Z,10.31
2017-02-28T14:07:19.531Z,10.31
2017-02-28T14:08:34.272Z,10.28
2017-02-28T14:09:49.279Z,10.25
2017-02-28T14:11:18.446Z,10.17
2017-02-28T14:12:36.754Z,10.05
2017-02-28T14:13:52.085Z,9.98
2017-02-28T14:15:06.630Z,9.96
2017-02-28T14:16:22.060Z,9.9
2017-02-28T14:17:36.525Z,9.85
2017-02-28T14:18:51.240Z,9.8
2017-02-28T14:20:06.031Z,9.76
2017-02-28T14:21:20.846Z,9.77
2017-02-28T14:22:35.527Z,9.75
2017-02-28T14:23:51.074Z,9.7
2017-02-28T14:25:05.561Z,9.67
2017-02-28T14:26:20.796Z,9.63
2017-02-28T14:27:36.541Z,9.59
2017-02-28T14:28:51.939Z,9.59
2017-02-28T14:30:06.624Z,9.56
2017-02-28T14:31:21.704Z,9.54
2017-02-28T14:32:37.076Z,9.52
2017-02-28T14:33:51.286Z,9.5
2017-02-28T14:35:06.564Z,9.46
2017-02-28T14:36:20.777Z,9.4
2017-02-28T14:37:36.745Z,9.36
2017-02-28T14:38:51.512Z,9.34
2017-02-28T14:40:06.984Z,9.3
2017-02-28T14:41:21.463Z,9.26
2017-02-28T14:42:36.286Z,9.25
2017-02-28T14:43:51.316Z,9.22
2017-02-28T14:45:06.270Z,9.18
2017-02-28T14:46:41.716Z,9.17
2017-02-28T14:47:57.193Z,9.17
2017-02-28T14:49:12.549Z,9.16
2017-02-28T14:50:28.064Z,9.13
2017-02-28T14:51:42.909Z,9.13
2017-02-28T14:52:58.449Z,9.11
2017-02-28T14:54:13.526Z,9.11
2017-02-28T14:55:29.569Z,9.09
2017-02-28T14:56:44.582Z,9.06
2017-02-28T14:57:59.152Z,9.01
2017-02-28T14:59:13.918Z,8.98
2017-02-28T15:00:28.559Z,8.98
2017-02-28T15:01:43.360Z,8.98
2017-02-28T15:02:58.305Z,8.91
2017-02-28T15:04:13.532Z,8.88
2017-02-28T15:05:29.100Z,8.83
2017-02-28T15:06:43.972Z,8.76
2017-02-28T15:07:58.863Z,8.66
2017-02-28T15:09:13.979Z,8.62
2017-02-28T15:10:28.236Z,8.63
2017-02-28T15:11:42.502Z,8.64
2017-02-28T15:12:57.153Z,8.69
2017-02-28T15:14:11.858Z,8.69
2017-02-28T15:15:26.044Z,8.7
2017-02-28T15:16:40.828Z,8.7
2017-02-28T15:17:55.995Z,8.7
2017-02-28T15:19:11.288Z,8.71
2017-02-28T15:20:25.690Z,8.72
2017-02-28T15:21:40.918Z,8.69
2017-02-28T15:22:55.203Z,8.65
2017-02-28T15:24:10.191Z,8.57
2017-02-28T15:25:25.078Z,8.55
2017-02-28T15:26:39.682Z,8.54
2017-02-28T15:27:54.841Z,8.56
2017-02-28T15:29:10.489Z,8.54
2017-02-28T15:30:27.805Z,8.51
2017-02-28T15:31:43.598Z,8.5
2017-02-28T15:32:57.877Z,8.5
2017-02-28T15:34:12.483Z,8.49
2017-02-28T15:35:27.425Z,8.5
2017-02-28T15:36:42.068Z,8.54
2017-02-28T15:37:58.119Z,8.59
2017-02-28T15:39:12.404Z,8.61
2017-02-28T15:40:28.356Z,8.66
2017-02-28T15:41:42.657Z,8.72
2017-02-28T15:42:58.356Z,8.8
2017-02-28T15:44:12.510Z,8.86
2017-02-28T15:45:27.242Z,8.9
2017-02-28T15:46:42.244Z,8.91
2017-02-28T15:47:58.276Z,8.91
2017-02-28T15:49:12.701Z,8.93
2017-02-28T15:50:26.729Z,8.97
2017-02-28T15:51:44.004Z,9.01
2017-02-28T15:52:58.578Z,9.01
2017-02-28T15:54:12.908Z,9.01
2017-02-28T15:55:27.544Z,9
2017-02-28T15:56:43.218Z,8.94
2017-02-28T15:58:00.329Z,8.87
2017-02-28T15:59:15.842Z,8.82
2017-02-28T16:00:31.279Z,8.78
2017-02-28T16:01:45.810Z,8.78
2017-02-28T16:03:00.335Z,8.75
2017-02-28T16:04:16.039Z,8.68
2017-02-28T16:05:31.220Z,8.61
2017-02-28T16:06:46.081Z,8.54
2017-02-28T16:08:01.225Z,8.48
2017-02-28T16:09:16.825Z,8.5
2017-02-28T16:10:34.478Z,8.48
2017-02-28T16:11:52.677Z,8.45
2017-02-28T16:13:08.927Z,8.41
2017-02-28T16:14:23.792Z,8.36
2017-02-28T16:15:38.042Z,8.33
2017-02-28T16:16:52.826Z,8.31
2017-02-28T16:18:07.687Z,8.31
2017-02-28T16:19:22.384Z,8.32
2017-02-28T16:20:38.020Z,8.35
2017-02-28T16:21:52.249Z,8.35
2017-02-28T16:23:06.946Z,8.37
2017-02-28T16:24:22.534Z,8.39
2017-02-28T16:25:38.480Z,8.4
2017-02-28T16:26:54.196Z,8.4
2017-02-28T16:28:09.449Z,8.39
2017-02-28T16:29:28.486Z,8.38
2017-02-28T16:30:44.274Z,8.37
2017-02-28T16:31:59.477Z,8.35
2017-02-28T16:33:14.211Z,8.35
2017-02-28T16:34:29.109Z,8.37
2017-02-28T16:35:43.965Z,8.36
2017-02-28T16:36:59.949Z,8.35
2017-02-28T16:38:15.838Z,8.34
2017-02-28T16:39:31.480Z,8.32
2017-02-28T16:40:46.310Z,8.28
2017-02-28T16:42:01.386Z,8.26
2017-02-28T16:43:16.306Z,8.28
2017-02-28T16:44:30.921Z,8.28
2017-02-28T16:45:46.521Z,8.28
2017-02-28T16:47:02.000Z,8.29
2017-02-28T16:48:18.562Z,8.3
2017-02-28T16:49:33.420Z,8.31
2017-02-28T16:50:48.696Z,8.3
2017-02-28T16:52:03.500Z,8.29
2017-02-28T16:53:19.344Z,8.29
2017-02-28T16:54:35.891Z,8.29
2017-02-28T16:55:50.277Z,8.29
2017-02-28T16:57:04.629Z,8.25
2017-02-28T16:58:19.237Z,8.24
2017-02-28T16:59:35.365Z,8.23
2017-02-28T17:00:50.479Z,8.24
2017-02-28T17:02:05.072Z,8.26
2017-02-28T17:03:19.385Z,8.28
2017-02-28T17:04:34.557Z,8.32
2017-02-28T17:05:49.475Z,8.36
2017-02-28T17:07:03.983Z,8.4
2017-02-28T17:08:18.578Z,8.43
2017-02-28T17:09:32.675Z,8.44
2017-02-28T17:10:48.128Z,8.45
2017-02-28T17:12:02.443Z,8.44
2017-02-28T17:13:16.580Z,8.45
2017-02-28T17:14:32.128Z,8.44
2017-02-28T17:15:46.733Z,8.43